Aviation Digital Data Service (ADDS)

Output produced by METARs form (0454 UTC 16 September 2014)
found at http://www.aviationweather.gov/adds/metars/
 
KAOO 160353Z AUTO 00000KT 10SM CLR 11/10 A3006 RMK AO2 SLP179 T01110100 $
KAOO 160253Z AUTO 00000KT 10SM CLR 12/11 A3008 RMK AO2 SLP185 T01170106 56008 $
KAOO 160153Z AUTO 17005KT 10SM CLR 14/11 A3008 RMK AO2 SLP186 T01440106 PWINO $
KAOO 160053Z AUTO 18005KT 10SM CLR 14/10 A3009 RMK AO2 SLP192 T01440100 $
KAOO 152353Z AUTO 00000KT 10SM CLR 16/10 A3010 RMK AO2 SLP196 T01560100 10200 20144 55004
KAOO 152253Z AUTO 19006KT 10SM CLR 17/10 A3010 RMK AO2 SLP193 T01720100
KAOO 152153Z AUTO 18006KT 10SM CLR 19/09 A3011 RMK AO2 SLP197 T01890089
KAOO 152053Z AUTO 18005KT 10SM CLR 20/09 A3011 RMK AO2 SLP197 T02000089 58027
KAOO 151953Z AUTO 18006KT 10SM CLR 19/09 A3015 RMK AO2 SLP210 T01890089
KAOO 151853Z AUTO 23007KT 10SM CLR 18/09 A3017 RMK AO2 SLP217 T01830089
KAOO 151753Z AUTO VRB04KT 10SM CLR 18/09 A3020 RMK AO2 SLP226 6//// T01780094 10200 20078 58020
KAOO 151653Z AUTO 00000KT 10SM CLR 17/08 A3022 RMK AO2 SLP236 T01670083
KAOO 151553Z AUTO 15006KT 10SM BKN033 18/08 A3024 RMK AO2 SLP240 T01780078 PWINO PNO $
KAOO 151453Z AUTO 00000KT 10SM CLR 14/11 A3026 RMK AO2 SLP249 6//// T01440111 58001 PWINO PNO $
KAOO 151401Z AUTO 00000KT 6SM BR SCT002 11/11 A3027 RMK AO2 T01060106 $
KAOO 151353Z AUTO 00000KT 4SM BR BKN002 10/09 A3027 RMK AO2 SLP254 T01000094 PWINO $
KAOO 151334Z AUTO 00000KT 1SM BR OVC001 09/09 A3026 RMK AO2 T00940094 $
KAOO 151253Z AUTO 00000KT M1/4SM FG VV001 08/08 A3026 RMK AO2 SLP252 T00780078 $
KAOO 151153Z AUTO 00000KT M1/4SM FG VV001 06/06 A3026 RMK AO2 SLP252 6//// 7//// T00610061 10072 20044 51007 $
KAOO 151053Z AUTO 00000KT M1/4SM FG VV001 06/06 A3025 RMK AO2 SLP250 T00560056 PNO $
KAOO 151046Z AUTO 00000KT 1/4SM FG VV001 06/06 A3025 RMK AO2 T00560056 PNO $
KAOO 151038Z AUTO 30003KT 3/4SM BR VV002 04/04 A3025 RMK AO2 T00440044 PNO $
KAOO 151031Z AUTO 00000KT 3SM BR BKN003 05/05 A3025 RMK AO2 T00500050 PNO $
KAOO 151024Z AUTO 00000KT 1SM BR VV003 06/06 A3025 RMK AO2 T00560056 PNO $
KAOO 151013Z AUTO 16003KT 3/4SM BR VV002 06/06 A3025 RMK AO2 T00560056 PNO $
KAOO 150953Z AUTO 13003KT 1/4SM FG VV001 06/05 A3025 RMK AO2 SLP246 T00560050 PNO $
KAOO 150853Z AUTO 00000KT 1/4SM FG VV001 07/07 A3024 RMK AO2 SLP242 6//// T00670067 53000 PNO $
KAOO 150817Z AUTO 00000KT 1/4SM FG VV001 06/06 A3023 RMK AO2 T00610061 PNO $
KAOO 150802Z AUTO 00000KT 3/4SM BR VV001 06/06 A3023 RMK AO2 T00610061 PNO $
KAOO 150753Z AUTO 00000KT 1/2SM FG VV001 06/06 A3023 RMK AO2 SLP242 T00610056 PNO $
KAOO 150741Z AUTO 00000KT 1/4SM FG VV001 06/06 A3023 RMK AO2 T00560056 PNO $
KAOO 150734Z AUTO 00000KT 3/4SM BR VV001 06/06 A3023 RMK AO2 T00610056 PNO $
KAOO 150732Z AUTO 00000KT 1 3/4SM BR FEW001 06/06 A3023 RMK AO2 T00610056 PNO $
KAOO 150653Z AUTO 17003KT 4SM BR CLR 07/06 A3024 RMK AO2 SLP243 T00670061 PNO $
KAOO 150645Z AUTO 15004KT 2 1/2SM BR CLR 07/06 A3024 RMK AO2 T00670061 PNO $
KAOO 150603Z AUTO 00000KT 10SM FEW001 07/07 A3024 RMK AO2 T00670067 PNO $
KAOO 150553Z AUTO 00000KT 9SM CLR 07/06 A3024 RMK AO2 SLP243 6//// T00670061 10122 20067 50001 PNO $
KAOO 150453Z AUTO 00000KT 10SM CLR 07/07 A3024 RMK AO2 SLP243 T00720067 401720050 PNO $
KAOO 150353Z AUTO 14003KT 10SM SCT045 08/07 A3024 RMK AO2 SLP242 T00780072 PNO $
KAOO 150253Z AUTO 00000KT 10SM CLR 08/08 A3023 RMK AO2 SLP241 6//// T00830078 50004 PNO $
KAOO 150153Z AUTO 00000KT 10SM CLR 09/09 A3024 RMK AO2 SLP243 T00940089 PNO $
KAOO 150053Z AUTO 09003KT 10SM BKN046 11/09 A3024 RMK AO2 SLP242 T01060094 PNO $
KAOO 142353Z AUTO 00000KT 10SM BKN048 12/09 A3022 RMK AO2 SLP238 6//// T01170094 10172 20111 56003 PNO $
KAOO 142253Z AUTO 10003KT 10SM CLR 14/09 A3022 RMK AO2 SLP238 T01440089 PNO $
KAOO 142153Z AUTO 09004KT 10SM FEW038 16/09 A3023 RMK AO2 SLP238 T01610089 PNO $
KAOO 142053Z AUTO 00000KT 10SM FEW037 16/08 A3023 RMK AO2 SLP239 6//// T01610083 56020 PNO $
KAOO 141953Z AUTO 18003KT 10SM SCT039 16/07 A3025 RMK AO2 SLP246 T01560072 PNO $
KAOO 141853Z AUTO 05003KT 10SM BKN032 16/07 A3027 RMK AO2 SLP251 T01560072 PNO $
KAOO 141753Z AUTO VRB03KT 10SM SCT033 14/07 A3029 RMK AO2 SLP260 6//// T01440067 10150 20078 58017 PNO $